Time;durP1;ratioP1;P1;durP2;ratioP2;P2;SDS_P1;SDS_P2;PMS_P1;PMS_P2;Temp;Humidity;BMP_temperature;BMP_pressure;BME280_temperature;BME280_humidity;BME280_pressure;Samples;Min_cycle;Max_cycle;Signal;HPM_P1;HPM_P2
2023/11/03 00:00:07;;;;;;;27.77;23.08;;;10.40;99.90;;;;;;2067927;28;20492;-83
2023/11/03 00:01:08;;;;;;;29.35;23.15;;;10.40;99.90;;;;;;2066875;28;20487;-83
2023/11/03 00:02:08;;;;;;;29.75;24.67;;;10.40;99.90;;;;;;2059709;28;20030;-83
2023/11/03 00:03:09;;;;;;;29.70;24.10;;;10.40;99.90;;;;;;2058153;28;20503;-82
2023/11/03 00:04:11;;;;;;;31.67;25.52;;;10.40;99.90;;;;;;2049848;28;20275;-83
2023/11/03 00:05:12;;;;;;;31.38;25.33;;;10.40;99.90;;;;;;2052402;28;20493;-85
2023/11/03 00:06:12;;;;;;;32.42;25.10;;;10.30;99.90;;;;;;2055875;28;20036;-83
2023/11/03 00:07:14;;;;;;;33.00;25.42;;;10.30;99.90;;;;;;2054280;28;20088;-82
2023/11/03 00:08:16;;;;;;;33.40;25.80;;;10.30;99.90;;;;;;2047994;28;20053;-82
2023/11/03 00:09:17;;;;;;;32.55;25.85;;;10.30;99.90;;;;;;2056519;28;20042;-83
2023/11/03 00:10:18;;;;;;;36.65;25.90;;;10.30;99.90;;;;;;2064961;28;20030;-84
2023/11/03 00:11:19;;;;;;;33.35;27.05;;;10.20;99.90;;;;;;2066872;28;20108;-84
2023/11/03 00:12:20;;;;;;;32.08;26.70;;;10.20;99.90;;;;;;2066976;28;20034;-83
2023/11/03 00:13:22;;;;;;;35.30;26.90;;;10.20;99.90;;;;;;2054506;28;20395;-83
2023/11/03 00:14:23;;;;;;;32.78;25.17;;;10.20;99.90;;;;;;2057847;28;20097;-83
2023/11/03 00:15:23;;;;;;;32.97;24.65;;;10.20;99.90;;;;;;2068466;28;20054;-84
2023/11/03 00:16:24;;;;;;;31.92;25.42;;;10.20;99.90;;;;;;2064863;28;20029;-85
2023/11/03 00:17:25;;;;;;;33.13;25.20;;;10.20;99.90;;;;;;2056926;28;20091;-84
2023/11/03 00:18:26;;;;;;;32.83;26.17;;;10.10;99.90;;;;;;2059624;28;20026;-84
2023/11/03 00:19:27;;;;;;;31.63;25.70;;;10.10;99.90;;;;;;2067121;28;20026;-84
2023/11/03 00:20:28;;;;;;;33.38;25.15;;;10.10;99.90;;;;;;2059552;28;20049;-84
2023/11/03 00:21:33;;;;;;;30.80;25.05;;;10.10;99.90;;;;;;2061683;28;20034;-84
2023/11/03 00:22:34;;;;;;;30.83;24.67;;;10.10;99.90;;;;;;2055537;28;20022;-83
2023/11/03 00:23:35;;;;;;;34.97;26.73;;;10.10;99.90;;;;;;2064053;28;20491;-82
2023/11/03 00:24:36;;;;;;;35.83;26.92;;;10.20;99.90;;;;;;2066505;28;20033;-83
2023/11/03 00:25:37;;;;;;;33.78;26.77;;;10.20;99.90;;;;;;2062382;28;20493;-81
2023/11/03 00:26:38;;;;;;;44.60;27.25;;;10.20;99.90;;;;;;2065975;28;20038;-83
2023/11/03 00:27:38;;;;;;;32.92;26.58;;;10.20;99.90;;;;;;2063824;28;20105;-83
2023/11/03 00:28:40;;;;;;;31.90;25.08;;;10.20;99.90;;;;;;2062227;28;20046;-85
2023/11/03 00:29:41;;;;;;;31.25;25.83;;;10.20;99.90;;;;;;2068057;28;20033;-84
2023/11/03 00:30:41;;;;;;;32.88;25.75;;;10.20;99.90;;;;;;2062080;28;20485;-83
2023/11/03 00:31:45;;;;;;;31.10;24.55;;;10.20;99.90;;;;;;2057729;28;20037;-84
2023/11/03 00:32:46;;;;;;;30.50;25.15;;;10.20;99.90;;;;;;2058624;28;20038;-84
2023/11/03 00:33:47;;;;;;;30.25;25.10;;;10.20;99.90;;;;;;2066751;28;20553;-84
2023/11/03 00:34:47;;;;;;;32.35;25.42;;;10.20;99.90;;;;;;2071428;28;20046;-85
2023/11/03 00:35:48;;;;;;;33.65;26.52;;;10.20;99.90;;;;;;2061772;28;20030;-84
2023/11/03 00:36:49;;;;;;;32.10;26.08;;;10.20;99.90;;;;;;2060741;28;20034;-85
2023/11/03 00:37:51;;;;;;;31.40;25.30;;;10.20;99.90;;;;;;2051739;28;20070;-85
2023/11/03 00:38:52;;;;;;;33.20;26.02;;;10.20;99.90;;;;;;2048868;28;20416;-84
2023/11/03 00:39:52;;;;;;;35.03;27.13;;;10.20;99.90;;;;;;2060685;28;20030;-83
2023/11/03 00:40:53;;;;;;;34.22;26.95;;;10.20;99.90;;;;;;2067883;28;20056;-84
2023/11/03 00:41:54;;;;;;;31.48;26.33;;;10.20;99.90;;;;;;2067674;28;20034;-84
2023/11/03 00:42:59;;;;;;;34.00;27.00;;;10.20;99.90;;;;;;2067211;28;20010;-83
2023/11/03 00:44:00;;;;;;;35.15;26.42;;;10.20;99.90;;;;;;2066378;28;20061;-83
2023/11/03 00:45:00;;;;;;;32.70;25.80;;;10.20;99.90;;;;;;2068495;28;20034;-84
2023/11/03 00:46:03;;;;;;;37.45;27.02;;;10.30;99.90;;;;;;2064285;28;20421;-83
2023/11/03 00:47:06;;;;;;;33.88;26.20;;;10.30;99.90;;;;;;2067963;28;20704;-82
2023/11/03 00:48:06;;;;;;;33.10;26.27;;;10.30;99.90;;;;;;2052836;28;20031;-83
2023/11/03 00:49:08;;;;;;;35.38;27.40;;;10.30;99.90;;;;;;2040684;29;20035;-83
2023/11/03 00:50:09;;;;;;;33.10;26.58;;;10.30;99.90;;;;;;2045811;28;20036;-83
2023/11/03 00:51:10;;;;;;;34.35;26.70;;;10.30;99.90;;;;;;2054386;28;20034;-83
2023/11/03 00:52:11;;;;;;;34.40;25.92;;;10.30;99.90;;;;;;2057242;28;20026;-84
2023/11/03 00:53:11;;;;;;;33.35;26.33;;;10.30;99.90;;;;;;2065910;28;20413;-83
2023/11/03 00:54:12;;;;;;;33.30;26.35;;;10.30;99.90;;;;;;2079944;28;20014;-82
2023/11/03 00:55:13;;;;;;;33.35;26.38;;;10.30;99.90;;;;;;2070526;28;20062;-82
2023/11/03 00:56:13;;;;;;;32.42;26.20;;;10.30;99.90;;;;;;2069583;28;20040;-84
2023/11/03 00:57:14;;;;;;;34.15;27.00;;;10.30;99.90;;;;;;2069969;28;20025;-83
2023/11/03 00:58:15;;;;;;;36.40;27.67;;;10.30;99.90;;;;;;2068691;28;20029;-83
2023/11/03 00:59:16;;;;;;;35.47;26.63;;;10.30;99.90;;;;;;2070276;28;20053;-84
2023/11/03 01:00:17;;;;;;;34.40;27.05;;;10.30;99.90;;;;;;2070412;28;20029;-84
2023/11/03 01:01:18;;;;;;;32.53;25.98;;;10.20;99.90;;;;;;2070995;28;20038;-84
2023/11/03 01:02:19;;;;;;;38.17;26.98;;;10.20;99.90;;;;;;2069091;28;20535;-84
2023/11/03 01:03:20;;;;;;;31.63;26.05;;;10.20;99.90;;;;;;2068528;28;20100;-84
2023/11/03 01:04:20;;;;;;;32.25;26.38;;;10.20;99.90;;;;;;2069388;28;20046;-83
2023/11/03 01:05:22;;;;;;;34.42;27.08;;;10.20;99.90;;;;;;2066218;28;20593;-82
2023/11/03 01:06:22;;;;;;;39.20;29.20;;;10.20;99.90;;;;;;2071619;28;20034;-84
2023/11/03 01:07:23;;;;;;;38.03;28.92;;;10.20;99.90;;;;;;2069375;28;20242;-84
2023/11/03 01:08:23;;;;;;;40.35;29.27;;;10.20;99.90;;;;;;2074240;28;20030;-84
2023/11/03 01:09:24;;;;;;;37.03;28.83;;;10.10;99.90;;;;;;2061339;28;20038;-83
2023/11/03 01:10:27;;;;;;;36.85;28.13;;;10.10;99.90;;;;;;2062980;28;20037;-85
2023/11/03 01:11:27;;;;;;;37.63;28.73;;;10.10;99.90;;;;;;2072736;28;20025;-84
2023/11/03 01:12:28;;;;;;;40.22;28.95;;;10.20;99.90;;;;;;2064362;28;20494;-85
2023/11/03 01:13:30;;;;;;;38.13;29.52;;;10.20;99.90;;;;;;2070025;28;20132;-83
2023/11/03 01:14:32;;;;;;;38.95;28.70;;;10.20;99.90;;;;;;2066352;28;20014;-84
2023/11/03 01:15:35;;;;;;;35.85;26.70;;;10.20;99.90;;;;;;2065914;28;20034;-84
2023/11/03 01:16:38;;;;;;;37.92;27.77;;;10.20;99.90;;;;;;2061001;28;20382;-82
2023/11/03 01:17:41;;;;;;;39.30;28.92;;;10.20;99.90;;;;;;2059460;28;20336;-84
2023/11/03 01:18:45;;;;;;;32.28;25.02;;;10.20;99.90;;;;;;2062837;28;20492;-84
2023/11/03 01:19:47;;;;;;;27.52;21.98;;;10.20;99.90;;;;;;2060178;28;20324;-85
2023/11/03 01:20:48;;;;;;;27.90;22.95;;;10.20;99.90;;;;;;2071684;28;20045;-83
2023/11/03 01:21:49;;;;;;;28.38;21.60;;;10.20;99.90;;;;;;2070620;28;20049;-82
2023/11/03 01:22:49;;;;;;;26.55;22.00;;;10.20;99.90;;;;;;2073376;28;20029;-84
2023/11/03 01:23:52;;;;;;;29.23;22.98;;;10.20;99.90;;;;;;2063213;28;20037;-84
2023/11/03 01:24:52;;;;;;;29.20;23.50;;;10.20;99.90;;;;;;2061893;28;20093;-84
2023/11/03 01:25:54;;;;;;;30.15;22.95;;;10.20;99.90;;;;;;2062884;28;20568;-83
2023/11/03 01:26:55;;;;;;;30.73;24.20;;;10.20;99.90;;;;;;2070430;28;20161;-83
2023/11/03 01:27:56;;;;;;;31.45;23.70;;;10.20;99.90;;;;;;2062529;28;20022;-83
2023/11/03 01:28:57;;;;;;;35.05;24.70;;;10.20;99.90;;;;;;2057194;28;20506;-82
2023/11/03 01:29:58;;;;;;;30.38;23.25;;;10.20;99.90;;;;;;2062399;28;20058;-83
2023/11/03 01:30:59;;;;;;;28.58;22.15;;;10.20;99.90;;;;;;2057008;28;20034;-83
2023/11/03 01:31:59;;;;;;;28.30;22.25;;;10.20;99.90;;;;;;2054861;28;20536;-84
2023/11/03 01:33:00;;;;;;;29.38;22.45;;;10.10;99.90;;;;;;2055235;28;20041;-84
2023/11/03 01:34:01;;;;;;;27.00;21.70;;;10.10;99.90;;;;;;2059797;28;20331;-84
2023/11/03 01:35:02;;;;;;;28.85;21.92;;;10.10;99.90;;;;;;2061195;28;20026;-84
2023/11/03 01:36:04;;;;;;;28.33;21.30;;;10.20;99.90;;;;;;2066243;28;20014;-84
2023/11/03 01:37:05;;;;;;;27.40;21.88;;;10.20;99.90;;;;;;2069558;28;20026;-84
2023/11/03 01:38:06;;;;;;;29.98;23.20;;;10.20;99.90;;;;;;2071735;28;20021;-83
2023/11/03 01:39:08;;;;;;;28.10;21.83;;;10.20;99.90;;;;;;2059599;28;20089;-83
2023/11/03 01:40:09;;;;;;;30.17;21.90;;;10.10;99.90;;;;;;2058201;28;20037;-83
2023/11/03 01:41:11;;;;;;;27.02;21.30;;;10.20;99.90;;;;;;2069887;28;20034;-84
2023/11/03 01:42:11;;;;;;;27.23;21.70;;;10.10;99.90;;;;;;2065744;28;20038;-84
2023/11/03 01:43:12;;;;;;;29.10;20.85;;;10.10;99.90;;;;;;2067459;28;20017;-83
2023/11/03 01:44:12;;;;;;;28.63;21.75;;;10.10;99.90;;;;;;2058740;28;20018;-84
2023/11/03 01:45:13;;;;;;;27.35;21.90;;;10.10;99.90;;;;;;2060493;28;20033;-83
2023/11/03 01:46:14;;;;;;;27.58;22.00;;;10.10;99.90;;;;;;2057573;28;20524;-83
2023/11/03 01:47:15;;;;;;;28.88;22.17;;;10.10;99.90;;;;;;2061472;28;20022;-84
2023/11/03 01:48:16;;;;;;;26.52;21.67;;;10.10;99.90;;;;;;2063770;28;20181;-83
2023/11/03 01:49:17;;;;;;;28.15;21.55;;;10.10;99.90;;;;;;2060530;28;20022;-83
2023/11/03 01:50:18;;;;;;;27.98;21.15;;;10.10;99.90;;;;;;2060442;28;20281;-84
2023/11/03 01:51:19;;;;;;;27.80;21.23;;;10.10;99.90;;;;;;2061442;28;20061;-84
2023/11/03 01:52:19;;;;;;;29.13;22.17;;;10.10;99.90;;;;;;2060741;28;20022;-83
2023/11/03 01:53:20;;;;;;;28.00;21.25;;;10.10;99.90;;;;;;2068622;28;20492;-83
2023/11/03 01:54:21;;;;;;;28.30;21.63;;;10.10;99.90;;;;;;2069295;28;20053;-84
2023/11/03 01:55:22;;;;;;;28.83;21.85;;;10.10;99.90;;;;;;2064287;28;20046;-84
2023/11/03 01:56:25;;;;;;;27.50;22.30;;;10.00;99.90;;;;;;2072595;28;20037;-83
2023/11/03 01:57:25;;;;;;;26.50;22.33;;;10.00;99.90;;;;;;2060788;28;20027;-83
2023/11/03 01:58:26;;;;;;;27.98;21.48;;;10.00;99.90;;;;;;2064720;28;20049;-84
2023/11/03 01:59:27;;;;;;;27.70;21.65;;;10.00;99.90;;;;;;2063398;28;20080;-83
2023/11/03 02:00:28;;;;;;;25.10;19.95;;;10.00;99.90;;;;;;2048894;28;20039;-83
2023/11/03 02:01:29;;;;;;;24.63;20.27;;;10.00;99.90;;;;;;2060269;28;20456;-84
2023/11/03 02:02:31;;;;;;;26.08;19.85;;;10.10;99.90;;;;;;2064815;28;20294;-83
2023/11/03 02:03:32;;;;;;;25.27;19.35;;;10.00;99.90;;;;;;2064430;28;20034;-84
2023/11/03 02:04:33;;;;;;;24.23;19.25;;;10.00;99.90;;;;;;2068102;28;20049;-86
2023/11/03 02:05:33;;;;;;;24.67;19.75;;;10.00;99.90;;;;;;2065238;28;20569;-83
2023/11/03 02:06:34;;;;;;;25.48;20.27;;;10.00;99.90;;;;;;2071027;28;20060;-85
2023/11/03 02:07:34;;;;;;;23.75;19.23;;;10.00;99.90;;;;;;2069190;28;20509;-82
2023/11/03 02:08:36;;;;;;;24.15;19.02;;;10.00;99.90;;;;;;2071677;28;20101;-83
2023/11/03 02:09:37;;;;;;;26.75;19.80;;;10.00;99.90;;;;;;2059277;28;20065;-82
2023/11/03 02:10:42;;;;;;;24.33;19.17;;;10.00;99.90;;;;;;2060601;28;20022;-84
2023/11/03 02:11:43;;;;;;;24.17;18.75;;;10.00;99.90;;;;;;2067712;28;20073;-83
2023/11/03 02:12:44;;;;;;;23.63;18.85;;;9.90;99.90;;;;;;2070572;28;20025;-84
2023/11/03 02:13:45;;;;;;;23.20;18.02;;;10.00;99.90;;;;;;2070775;28;20022;-83
2023/11/03 02:14:49;;;;;;;23.75;18.77;;;9.90;99.90;;;;;;2056245;28;20417;-82
2023/11/03 02:15:50;;;;;;;23.05;18.75;;;10.00;99.90;;;;;;2060778;28;20034;-79
2023/11/03 02:16:51;;;;;;;25.85;18.92;;;10.00;99.90;;;;;;2066583;28;20029;-79
2023/11/03 02:17:52;;;;;;;23.33;18.52;;;10.00;99.90;;;;;;2063744;28;20026;-79
2023/11/03 02:18:52;;;;;;;22.88;17.75;;;10.00;99.90;;;;;;2063644;28;20398;-76
2023/11/03 02:19:53;;;;;;;23.02;17.38;;;10.00;99.90;;;;;;2061816;28;20485;-84
2023/11/03 02:20:54;;;;;;;24.15;17.13;;;10.00;99.90;;;;;;2069771;28;20413;-84
2023/11/03 02:21:54;;;;;;;23.13;17.92;;;10.00;99.90;;;;;;2071136;28;20025;-83
2023/11/03 02:22:56;;;;;;;25.45;18.02;;;10.00;99.90;;;;;;2068276;28;20692;-83
2023/11/03 02:23:56;;;;;;;23.38;18.40;;;10.00;99.90;;;;;;2062191;28;20050;-83
2023/11/03 02:24:57;;;;;;;23.65;17.70;;;10.00;99.90;;;;;;2054453;28;20635;-82
2023/11/03 02:25:57;;;;;;;23.02;17.38;;;10.00;99.90;;;;;;2051510;28;20069;-83
2023/11/03 02:26:58;;;;;;;25.27;18.25;;;10.00;99.90;;;;;;2064981;28;20026;-84
2023/11/03 02:27:59;;;;;;;25.65;18.35;;;10.00;99.90;;;;;;2060457;28;20060;-84
2023/11/03 02:28:59;;;;;;;25.40;17.30;;;10.00;99.90;;;;;;2061306;28;20050;-82
2023/11/03 02:30:00;;;;;;;24.63;18.48;;;10.00;99.90;;;;;;2069810;28;20607;-82
2023/11/03 02:31:00;;;;;;;25.92;17.92;;;10.00;99.90;;;;;;2053091;28;20122;-82
2023/11/03 02:32:01;;;;;;;23.15;17.05;;;10.00;99.90;;;;;;2056172;28;20034;-81
2023/11/03 02:33:02;;;;;;;23.33;17.83;;;10.10;99.90;;;;;;2049578;28;20035;-83
2023/11/03 02:34:03;;;;;;;22.63;17.10;;;10.00;99.90;;;;;;2051945;28;20031;-84
2023/11/03 02:35:04;;;;;;;25.88;18.05;;;10.00;99.90;;;;;;2060817;28;20353;-85
2023/11/03 02:36:05;;;;;;;24.27;17.25;;;10.00;99.90;;;;;;2059120;28;20019;-83
2023/11/03 02:37:06;;;;;;;23.50;17.42;;;10.00;99.90;;;;;;2053621;28;20031;-83
2023/11/03 02:38:07;;;;;;;21.42;16.23;;;10.00;99.90;;;;;;2067380;28;20030;-80
2023/11/03 02:39:07;;;;;;;21.40;16.52;;;10.00;99.90;;;;;;2058376;28;20041;-83
2023/11/03 02:40:09;;;;;;;23.35;16.75;;;10.00;99.90;;;;;;2056578;28;20226;-83
2023/11/03 02:41:09;;;;;;;21.85;16.73;;;10.00;99.90;;;;;;2069517;28;20108;-83
2023/11/03 02:42:10;;;;;;;23.65;16.60;;;10.00;99.90;;;;;;2068061;28;20388;-83
2023/11/03 02:43:11;;;;;;;20.95;15.63;;;9.90;99.90;;;;;;2069977;28;20026;-83
2023/11/03 02:44:11;;;;;;;20.58;16.10;;;9.90;99.90;;;;;;2065224;28;20343;-83
2023/11/03 02:45:12;;;;;;;24.67;16.45;;;9.90;99.90;;;;;;2055060;28;20037;-84
2023/11/03 02:46:12;;;;;;;21.52;15.55;;;9.90;99.90;;;;;;2050160;28;20039;-84
2023/11/03 02:47:13;;;;;;;20.45;15.20;;;9.90;99.90;;;;;;2063592;28;20072;-85
2023/11/03 02:48:14;;;;;;;19.92;15.23;;;9.90;99.90;;;;;;2057290;28;20034;-85
2023/11/03 02:49:14;;;;;;;19.95;15.52;;;9.90;99.90;;;;;;2059948;28;20033;-83
2023/11/03 02:50:15;;;;;;;21.85;16.13;;;9.90;99.90;;;;;;2068665;28;20033;-83
2023/11/03 02:51:16;;;;;;;21.08;15.80;;;9.90;99.90;;;;;;2060126;28;20511;-82
2023/11/03 02:52:17;;;;;;;21.20;16.00;;;10.00;99.90;;;;;;2063386;28;20022;-83
2023/11/03 02:53:20;;;;;;;21.23;15.82;;;10.00;99.90;;;;;;2052561;28;20061;-83
2023/11/03 02:54:21;;;;;;;23.15;15.77;;;10.00;99.90;;;;;;2057188;28;20022;-83
2023/11/03 02:55:21;;;;;;;21.25;15.77;;;10.00;99.90;;;;;;2067792;28;20042;-83
2023/11/03 02:56:27;;;;;;;20.67;15.57;;;9.90;99.90;;;;;;2068317;28;20041;-83
2023/11/03 02:57:27;;;;;;;21.98;15.88;;;9.90;99.90;;;;;;2067897;28;20108;-83
2023/11/03 02:58:34;;;;;;;23.13;15.45;;;9.90;99.90;;;;;;2058977;28;20552;-83
2023/11/03 02:59:35;;;;;;;21.55;15.45;;;9.90;99.90;;;;;;2054962;28;20026;-83
2023/11/03 03:00:36;;;;;;;20.08;15.10;;;9.90;99.90;;;;;;2051118;28;20082;-83
2023/11/03 03:01:39;;;;;;;20.23;15.43;;;9.80;99.90;;;;;;2059617;28;20094;-83
2023/11/03 03:02:40;;;;;;;21.92;16.02;;;9.80;99.90;;;;;;2054764;28;20036;-82
2023/11/03 03:03:41;;;;;;;24.00;15.68;;;9.80;99.90;;;;;;2050964;28;20034;-83
2023/11/03 03:04:41;;;;;;;23.92;16.17;;;9.80;99.90;;;;;;2059082;28;20027;-83
2023/11/03 03:05:42;;;;;;;21.60;16.05;;;9.80;99.90;;;;;;2053512;28;20117;-83
2023/11/03 03:06:45;;;;;;;20.20;15.77;;;9.80;99.90;;;;;;2063530;28;20405;-83
2023/11/03 03:07:46;;;;;;;22.80;16.48;;;9.80;99.90;;;;;;2062440;28;20030;-84
2023/11/03 03:08:48;;;;;;;22.50;16.60;;;9.90;99.90;;;;;;2064682;28;20037;-83
2023/11/03 03:09:48;;;;;;;22.20;15.23;;;9.80;99.90;;;;;;2066504;28;20049;-82
2023/11/03 03:10:49;;;;;;;22.77;15.85;;;9.90;99.90;;;;;;2060499;28;20105;-83
2023/11/03 03:11:49;;;;;;;20.98;16.08;;;9.90;99.90;;;;;;2057490;28;20100;-83
2023/11/03 03:12:50;;;;;;;21.48;15.80;;;9.90;99.90;;;;;;2056119;28;20088;-83
2023/11/03 03:13:51;;;;;;;23.02;16.27;;;9.90;99.90;;;;;;2070139;28;20034;-83
2023/11/03 03:14:51;;;;;;;21.92;15.63;;;9.80;99.90;;;;;;2061678;28;20037;-83
2023/11/03 03:15:52;;;;;;;21.05;15.90;;;9.80;99.90;;;;;;2060427;28;20030;-83
2023/11/03 03:16:52;;;;;;;21.25;15.77;;;9.80;99.90;;;;;;2062926;28;20483;-83
2023/11/03 03:17:53;;;;;;;21.35;15.40;;;9.80;99.90;;;;;;2065804;28;20110;-83
2023/11/03 03:18:54;;;;;;;22.80;15.98;;;9.80;99.90;;;;;;2055515;28;20023;-83
2023/11/03 03:19:55;;;;;;;26.00;16.85;;;9.80;99.90;;;;;;2059596;28;20070;-82
2023/11/03 03:20:56;;;;;;;27.65;16.88;;;9.80;99.90;;;;;;2064999;28;20122;-83
2023/11/03 03:21:56;;;;;;;28.80;17.42;;;9.80;99.90;;;;;;2057885;28;20026;-84
2023/11/03 03:22:57;;;;;;;27.63;17.75;;;9.70;99.90;;;;;;2056319;28;20030;-84
2023/11/03 03:23:58;;;;;;;28.38;18.20;;;9.70;99.90;;;;;;2057718;28;20030;-83
2023/11/03 03:24:58;;;;;;;30.13;18.50;;;9.70;99.90;;;;;;2066110;28;20046;-85
2023/11/03 03:25:59;;;;;;;32.13;19.42;;;9.70;99.90;;;;;;2066610;28;20032;-83
2023/11/03 03:27:00;;;;;;;26.40;17.58;;;9.70;99.90;;;;;;2057690;28;20039;-83
2023/11/03 03:28:00;;;;;;;39.97;20.33;;;9.70;99.90;;;;;;2058483;28;20532;-83
2023/11/03 03:29:01;;;;;;;21.92;16.15;;;9.70;99.90;;;;;;2061090;28;20453;-84
2023/11/03 03:30:02;;;;;;;24.88;16.92;;;9.70;99.90;;;;;;2067216;28;20488;-83
2023/11/03 03:31:04;;;;;;;32.60;18.35;;;9.70;99.90;;;;;;2055283;28;20551;-83
2023/11/03 03:32:05;;;;;;;26.90;17.92;;;9.80;99.90;;;;;;2058807;28;20035;-83
2023/11/03 03:33:05;;;;;;;26.95;17.17;;;9.80;99.90;;;;;;2059753;28;20034;-82
2023/11/03 03:34:06;;;;;;;32.47;20.05;;;9.70;99.90;;;;;;2058860;28;20038;-84
2023/11/03 03:35:07;;;;;;;27.60;17.45;;;9.70;99.90;;;;;;2058680;28;20121;-83
2023/11/03 03:36:08;;;;;;;22.60;15.82;;;9.80;99.90;;;;;;2054695;28;20405;-83
2023/11/03 03:37:08;;;;;;;22.20;16.08;;;9.80;99.90;;;;;;2058498;28;20085;-83
2023/11/03 03:38:09;;;;;;;24.80;16.70;;;9.80;99.90;;;;;;2063590;28;20036;-84
2023/11/03 03:39:09;;;;;;;23.35;16.50;;;9.80;99.90;;;;;;2062839;28;20021;-83
2023/11/03 03:40:12;;;;;;;23.83;16.00;;;9.80;99.90;;;;;;2050948;28;20026;-84
2023/11/03 03:41:14;;;;;;;23.92;15.63;;;9.80;99.90;;;;;;2058366;28;20032;-83
2023/11/03 03:42:14;;;;;;;21.00;15.05;;;9.80;99.90;;;;;;2059001;28;20412;-83
2023/11/03 03:43:15;;;;;;;22.98;15.77;;;9.70;99.90;;;;;;2059995;28;20125;-83
2023/11/03 03:44:16;;;;;;;22.13;15.98;;;9.70;99.90;;;;;;2056220;28;20508;-83
2023/11/03 03:45:16;;;;;;;22.55;15.93;;;9.70;99.90;;;;;;2063947;28;20054;-83
2023/11/03 03:46:17;;;;;;;21.73;15.60;;;9.70;99.90;;;;;;2068501;28;20029;-82
2023/11/03 03:47:19;;;;;;;21.30;15.18;;;9.60;99.90;;;;;;2069133;28;20092;-83
2023/11/03 03:48:19;;;;;;;19.30;14.82;;;9.60;99.90;;;;;;2067483;28;20352;-83
2023/11/03 03:49:20;;;;;;;19.73;14.82;;;9.60;99.90;;;;;;2065091;28;20077;-83
2023/11/03 03:50:21;;;;;;;19.10;14.68;;;9.70;99.90;;;;;;2064781;28;20098;-84
2023/11/03 03:51:21;;;;;;;20.58;14.25;;;9.70;99.90;;;;;;2061149;28;20038;-81
2023/11/03 03:52:23;;;;;;;20.77;14.75;;;9.70;99.90;;;;;;2065480;28;20022;-85
2023/11/03 03:53:23;;;;;;;21.20;15.65;;;9.70;99.90;;;;;;2061374;28;20034;-83
2023/11/03 03:54:24;;;;;;;22.17;16.25;;;9.60;99.90;;;;;;2070528;28;20037;-84
2023/11/03 03:55:24;;;;;;;23.67;16.30;;;9.70;99.90;;;;;;2069096;28;20034;-83
2023/11/03 03:56:25;;;;;;;23.05;16.27;;;9.60;99.90;;;;;;2070599;28;20026;-82
2023/11/03 03:57:26;;;;;;;24.05;16.67;;;9.60;99.90;;;;;;2063144;28;20042;-83
2023/11/03 03:58:27;;;;;;;25.40;17.35;;;9.60;99.90;;;;;;2062766;28;20054;-83
2023/11/03 03:59:29;;;;;;;27.90;17.85;;;9.60;99.90;;;;;;2061851;28;20041;-83
2023/11/03 04:00:29;;;;;;;26.10;17.35;;;9.60;99.90;;;;;;2054118;28;20069;-82
2023/11/03 04:01:30;;;;;;;24.15;16.90;;;9.60;99.90;;;;;;2062814;28;20077;-83
2023/11/03 04:02:31;;;;;;;23.00;16.27;;;9.60;99.90;;;;;;2071076;28;20030;-84
2023/11/03 04:03:32;;;;;;;23.42;16.17;;;9.60;99.90;;;;;;2062526;28;20045;-85
2023/11/03 04:04:32;;;;;;;25.27;16.75;;;9.60;99.90;;;;;;2050977;28;20117;-83
2023/11/03 04:05:33;;;;;;;24.30;17.17;;;9.50;99.90;;;;;;2059701;28;20516;-84
2023/11/03 04:06:34;;;;;;;26.38;17.35;;;9.50;99.90;;;;;;2061755;28;20038;-83
2023/11/03 04:07:34;;;;;;;24.73;16.77;;;9.50;99.90;;;;;;2052213;28;20035;-83
2023/11/03 04:08:35;;;;;;;22.98;16.25;;;9.50;99.90;;;;;;2060098;28;20046;-83
2023/11/03 04:09:38;;;;;;;25.30;17.23;;;9.50;99.90;;;;;;2062134;28;20574;-83
2023/11/03 04:10:38;;;;;;;25.17;16.98;;;9.50;99.90;;;;;;2069096;28;20018;-84
2023/11/03 04:11:39;;;;;;;28.55;19.80;;;9.50;99.90;;;;;;2061094;28;20061;-84
2023/11/03 04:12:40;;;;;;;31.40;20.52;;;9.50;99.90;;;;;;2054435;28;20026;-83
2023/11/03 04:13:41;;;;;;;29.95;19.88;;;9.50;99.90;;;;;;2071971;28;20029;-82
2023/11/03 04:14:41;;;;;;;31.13;19.85;;;9.50;99.90;;;;;;2068053;28;20260;-83
2023/11/03 04:15:42;;;;;;;26.33;18.58;;;9.50;99.90;;;;;;2065642;28;20137;-80
2023/11/03 04:16:43;;;;;;;27.05;18.23;;;9.50;99.90;;;;;;2066523;28;20290;-82
2023/11/03 04:17:43;;;;;;;27.80;18.45;;;9.50;99.90;;;;;;2062310;28;20061;-84
2023/11/03 04:18:44;;;;;;;27.50;18.23;;;9.50;99.90;;;;;;2058493;28;20022;-84
2023/11/03 04:19:45;;;;;;;26.10;17.75;;;9.50;99.90;;;;;;2066985;28;20033;-82
2023/11/03 04:20:45;;;;;;;25.70;17.77;;;9.50;99.90;;;;;;2063701;28;20041;-84
2023/11/03 04:21:46;;;;;;;24.33;16.98;;;9.50;99.90;;;;;;2068516;28;20104;-84
2023/11/03 04:22:46;;;;;;;23.83;16.05;;;9.50;99.90;;;;;;2069293;28;20048;-84
2023/11/03 04:23:47;;;;;;;24.05;16.63;;;9.50;99.90;;;;;;2063134;28;20026;-85
2023/11/03 04:24:48;;;;;;;24.65;16.55;;;9.50;99.90;;;;;;2063716;28;20053;-84
2023/11/03 04:25:50;;;;;;;24.77;16.60;;;9.50;99.90;;;;;;2068431;28;20019;-84
2023/11/03 04:26:51;;;;;;;23.58;16.00;;;9.50;99.90;;;;;;2069600;28;20034;-83
2023/11/03 04:27:52;;;;;;;24.67;16.83;;;9.50;99.90;;;;;;2067638;28;20026;-83
2023/11/03 04:28:52;;;;;;;22.00;16.08;;;9.50;99.90;;;;;;2066014;28;20354;-85
2023/11/03 04:29:53;;;;;;;23.63;16.85;;;9.60;99.90;;;;;;2069833;28;20028;-85
2023/11/03 04:30:54;;;;;;;24.65;17.02;;;9.50;99.90;;;;;;2069591;28;20029;-86
2023/11/03 04:31:54;;;;;;;24.85;17.15;;;9.50;99.90;;;;;;2069939;28;20030;-85
2023/11/03 04:32:55;;;;;;;23.27;15.93;;;9.60;99.90;;;;;;2069942;28;20488;-85
2023/11/03 04:33:55;;;;;;;24.15;15.77;;;9.50;99.90;;;;;;2070184;28;20392;-85
2023/11/03 04:34:56;;;;;;;22.73;16.20;;;9.50;99.90;;;;;;2069905;28;20400;-86
2023/11/03 04:35:57;;;;;;;22.35;15.38;;;9.60;99.90;;;;;;2068325;28;20037;-85
2023/11/03 04:36:57;;;;;;;21.40;15.65;;;9.50;99.90;;;;;;2064485;28;20015;-85
2023/11/03 04:37:58;;;;;;;20.95;15.40;;;9.50;99.90;;;;;;2069147;28;20078;-83
2023/11/03 04:38:59;;;;;;;24.45;16.27;;;9.50;99.90;;;;;;2057846;28;20114;-85
2023/11/03 04:40:00;;;;;;;25.63;16.48;;;9.40;99.90;;;;;;2054087;28;20081;-84
2023/11/03 04:41:01;;;;;;;23.88;17.02;;;9.40;99.90;;;;;;2060647;28;20057;-84
2023/11/03 04:42:02;;;;;;;23.90;16.48;;;9.40;99.90;;;;;;2067494;28;20155;-84
2023/11/03 04:43:02;;;;;;;26.17;16.85;;;9.40;99.90;;;;;;2063701;28;20026;-83
2023/11/03 04:44:03;;;;;;;22.05;15.63;;;9.40;99.90;;;;;;2067266;28;20229;-86
2023/11/03 04:45:04;;;;;;;23.40;15.98;;;9.50;99.90;;;;;;2068105;28;20423;-83
2023/11/03 04:46:05;;;;;;;22.02;15.82;;;9.40;99.90;;;;;;2069522;28;20022;-83
2023/11/03 04:47:06;;;;;;;24.05;16.88;;;9.40;99.90;;;;;;2069971;28;20210;-84
2023/11/03 04:48:07;;;;;;;22.73;15.98;;;9.40;99.90;;;;;;2063203;28;20026;-84
2023/11/03 04:49:08;;;;;;;22.20;15.57;;;9.40;99.90;;;;;;2065698;28;20018;-84
2023/11/03 04:50:10;;;;;;;21.65;15.32;;;9.40;99.90;;;;;;2070829;28;20026;-84
2023/11/03 04:51:12;;;;;;;22.33;15.77;;;9.40;99.90;;;;;;2070661;28;20033;-84
2023/11/03 04:52:12;;;;;;;22.38;15.77;;;9.40;99.90;;;;;;2070616;28;20034;-83
2023/11/03 04:53:13;;;;;;;22.17;15.70;;;9.40;99.90;;;;;;2069467;28;20030;-84
2023/11/03 04:54:13;;;;;;;20.90;15.77;;;9.40;99.90;;;;;;2070589;28;20208;-83
2023/11/03 04:55:14;;;;;;;22.27;16.30;;;9.40;99.90;;;;;;2053132;28;20034;-83
2023/11/03 04:56:15;;;;;;;22.00;15.27;;;9.50;99.90;;;;;;2065985;28;20022;-83
2023/11/03 04:57:17;;;;;;;25.98;16.17;;;9.40;99.90;;;;;;2067861;28;20042;-81
2023/11/03 04:58:18;;;;;;;24.02;16.60;;;9.40;99.90;;;;;;2071198;28;20022;-85
2023/11/03 04:59:19;;;;;;;24.30;16.20;;;9.40;99.90;;;;;;2063534;28;20649;-84
2023/11/03 05:00:19;;;;;;;21.52;15.95;;;9.30;99.90;;;;;;2067156;28;20022;-84
2023/11/03 05:01:20;;;;;;;23.35;16.35;;;9.40;99.90;;;;;;2062692;28;20047;-85
2023/11/03 05:02:21;;;;;;;23.13;16.05;;;9.40;99.90;;;;;;2067086;28;20026;-84
2023/11/03 05:03:21;;;;;;;26.05;17.58;;;9.40;99.90;;;;;;2065648;28;20034;-85
2023/11/03 05:04:22;;;;;;;23.85;16.58;;;9.40;99.90;;;;;;2068101;28;20073;-84
2023/11/03 05:05:22;;;;;;;24.55;16.40;;;9.40;99.90;;;;;;2066582;28;20034;-85
2023/11/03 05:06:23;;;;;;;23.83;16.67;;;9.40;99.90;;;;;;2062411;28;20035;-84
2023/11/03 05:07:24;;;;;;;22.95;16.48;;;9.40;99.90;;;;;;2060869;28;20050;-84
2023/11/03 05:08:25;;;;;;;23.92;16.80;;;9.40;99.90;;;;;;2066356;28;20448;-84
2023/11/03 05:09:25;;;;;;;26.75;17.40;;;9.40;99.90;;;;;;2066308;28;20042;-84
2023/11/03 05:10:26;;;;;;;25.60;17.00;;;9.40;99.90;;;;;;2067585;28;20129;-84